createdAt,value
2022-10-29T00:01:43.241Z,68.70
2022-10-29T00:04:09.377Z,68.72
2022-10-29T00:06:35.774Z,68.72
2022-10-29T00:09:01.960Z,68.73
2022-10-29T00:11:28.082Z,68.83
2022-10-29T00:13:54.173Z,68.87
2022-10-29T00:16:20.281Z,68.93
2022-10-29T00:18:46.389Z,68.88
2022-10-29T00:21:12.492Z,69.02
2022-10-29T00:23:38.581Z,69.07
2022-10-29T00:26:04.824Z,69.14
2022-10-29T00:28:30.954Z,69.14
2022-10-29T00:30:57.061Z,69.07
2022-10-29T00:33:23.182Z,69.14
2022-10-29T00:35:49.302Z,69.17
2022-10-29T00:38:15.411Z,69.19
2022-10-29T00:40:41.568Z,69.28
2022-10-29T00:43:07.666Z,69.33
2022-10-29T00:45:33.772Z,69.36
2022-10-29T00:47:59.887Z,69.42
2022-10-29T00:50:25.975Z,69.39
2022-10-29T00:52:52.068Z,69.48
2022-10-29T00:55:18.175Z,69.48
2022-10-29T00:57:44.311Z,69.56
2022-10-29T01:00:10.431Z,69.62
2022-10-29T01:02:36.640Z,69.76
2022-10-29T01:05:02.857Z,69.74
2022-10-29T01:07:28.967Z,69.83
2022-10-29T01:09:55.607Z,69.90
2022-10-29T01:12:21.707Z,69.84
2022-10-29T01:14:47.806Z,69.79
2022-10-29T01:17:16.864Z,69.91
2022-10-29T01:19:44.111Z,70.05
2022-10-29T01:22:10.219Z,69.95
2022-10-29T01:24:36.373Z,70.02
2022-10-29T01:27:02.464Z,70.03
2022-10-29T01:29:28.560Z,70.08
2022-10-29T01:31:54.697Z,70.11
2022-10-29T01:34:20.796Z,70.17
2022-10-29T01:36:46.918Z,70.21
2022-10-29T01:39:13.020Z,70.30
2022-10-29T01:41:39.127Z,70.31
2022-10-29T01:44:05.229Z,70.31
2022-10-29T01:46:31.614Z,70.30
2022-10-29T01:48:57.715Z,70.30
2022-10-29T01:51:23.842Z,70.36
2022-10-29T01:53:49.961Z,70.46
2022-10-29T01:56:16.068Z,70.47
2022-10-29T01:58:42.163Z,70.46
2022-10-29T02:01:08.336Z,70.50
2022-10-29T02:03:34.485Z,70.62
2022-10-29T02:06:00.585Z,70.59
2022-10-29T02:08:26.696Z,70.58
2022-10-29T02:10:52.795Z,70.62
2022-10-29T02:13:18.939Z,70.64
2022-10-29T02:15:45.087Z,70.65
2022-10-29T02:18:11.185Z,70.65
2022-10-29T02:20:37.280Z,70.72
2022-10-29T02:23:03.404Z,70.91
2022-10-29T02:25:29.548Z,70.65
2022-10-29T02:27:55.971Z,70.72
2022-10-29T02:30:22.319Z,70.83
2022-10-29T02:32:48.402Z,70.91
2022-10-29T02:35:14.500Z,70.86
2022-10-29T02:37:40.614Z,71.09
2022-10-29T02:40:06.714Z,70.96
2022-10-29T02:42:32.808Z,71.01
2022-10-29T02:44:58.932Z,71.06
2022-10-29T02:47:25.058Z,71.12
2022-10-29T02:49:51.161Z,71.09
2022-10-29T02:52:17.644Z,71.29
2022-10-29T02:54:43.735Z,71.35
2022-10-29T02:57:09.843Z,71.44
2022-10-29T02:59:36.012Z,71.61
2022-10-29T03:02:02.233Z,71.57
2022-10-29T03:04:28.428Z,71.52
2022-10-29T03:06:54.538Z,71.63
2022-10-29T03:09:20.660Z,71.58
2022-10-29T03:11:46.756Z,71.76
2022-10-29T03:14:12.881Z,71.84
2022-10-29T03:16:38.994Z,71.97
2022-10-29T03:19:05.081Z,72.03
2022-10-29T03:21:31.591Z,72.12
2022-10-29T03:23:57.686Z,72.07
2022-10-29T03:26:23.773Z,72.10
2022-10-29T03:28:49.903Z,72.23
2022-10-29T03:31:16.019Z,72.27
2022-10-29T03:33:42.115Z,72.47
2022-10-29T03:36:08.279Z,72.60
2022-10-29T03:38:34.462Z,72.63
2022-10-29T03:41:00.566Z,72.70
2022-10-29T03:43:26.682Z,72.72
2022-10-29T03:45:52.779Z,72.75
2022-10-29T03:48:18.872Z,72.80
2022-10-29T03:50:45.024Z,72.93
2022-10-29T03:53:11.120Z,72.74
2022-10-29T03:55:37.224Z,72.89
2022-10-29T03:58:03.370Z,73.08
2022-10-29T04:00:29.491Z,73.09
2022-10-29T04:02:55.847Z,73.18
2022-10-29T04:05:22.206Z,73.17
2022-10-29T04:07:48.309Z,73.20
2022-10-29T04:10:14.413Z,73.29
2022-10-29T04:12:40.556Z,73.28
2022-10-29T04:15:06.652Z,73.34
2022-10-29T04:17:32.763Z,73.36
2022-10-29T04:19:58.903Z,73.47
2022-10-29T04:24:48.721Z,73.49
2022-10-29T04:30:43.307Z,73.49
2022-10-29T04:33:10.999Z,73.65
2022-10-29T04:35:37.092Z,73.49
2022-10-29T04:38:03.219Z,73.54
2022-10-29T04:40:29.316Z,73.49
2022-10-29T04:42:55.802Z,73.50
2022-10-29T04:45:22.154Z,73.60
2022-10-29T04:47:48.244Z,73.57
2022-10-29T04:50:14.339Z,73.60
2022-10-29T04:52:40.474Z,73.71
2022-10-29T04:55:06.580Z,73.61
2022-10-29T04:57:32.671Z,73.79
2022-10-29T04:59:59.071Z,73.71
2022-10-29T05:02:25.165Z,73.70
2022-10-29T05:04:51.265Z,73.76
2022-10-29T05:07:17.381Z,73.78
2022-10-29T05:09:43.466Z,73.98
2022-10-29T05:12:09.558Z,74.14
2022-10-29T05:14:35.694Z,74.05
2022-10-29T05:17:01.860Z,74.24
2022-10-29T05:19:27.984Z,74.27
2022-10-29T05:21:54.088Z,74.40
2022-10-29T05:24:20.186Z,74.37
2022-10-29T05:26:46.277Z,74.34
2022-10-29T05:29:12.440Z,74.34
2022-10-29T05:31:38.527Z,74.35
2022-10-29T05:34:04.663Z,74.29
2022-10-29T05:36:30.817Z,74.31
2022-10-29T05:38:56.936Z,74.37
2022-10-29T05:41:23.032Z,74.42
2022-10-29T05:43:49.152Z,74.32
2022-10-29T05:46:15.249Z,74.28
2022-10-29T05:48:41.358Z,74.29
2022-10-29T05:51:07.472Z,74.44
2022-10-29T05:53:33.609Z,74.40
2022-10-29T05:55:59.716Z,74.67
2022-10-29T05:58:25.830Z,74.70
2022-10-29T06:00:51.944Z,74.77
2022-10-29T06:03:18.061Z,74.74
2022-10-29T06:05:44.184Z,74.85
2022-10-29T06:08:10.276Z,74.93
2022-10-29T06:10:36.353Z,74.92
2022-10-29T06:13:02.457Z,74.97
2022-10-29T06:15:28.569Z,74.75
2022-10-29T06:17:54.907Z,75.02
2022-10-29T06:20:21.234Z,74.83
2022-10-29T06:22:47.327Z,74.81
2022-10-29T06:25:13.407Z,74.92
2022-10-29T06:27:39.521Z,74.83
2022-10-29T06:30:05.621Z,74.90
2022-10-29T06:32:31.712Z,74.77
2022-10-29T06:34:57.828Z,74.89
2022-10-29T06:37:24.296Z,74.84
2022-10-29T06:39:50.499Z,74.93
2022-10-29T06:42:16.607Z,74.97
2022-10-29T06:44:42.716Z,74.94
2022-10-29T06:47:08.832Z,75.00
2022-10-29T06:49:34.940Z,74.96
2022-10-29T06:52:01.041Z,74.92
2022-10-29T06:54:27.125Z,74.95
2022-10-29T06:56:53.233Z,75.05
2022-10-29T06:59:19.336Z,75.04
2022-10-29T07:01:45.458Z,75.22
2022-10-29T07:04:12.128Z,75.29
2022-10-29T07:06:38.233Z,75.16
2022-10-29T07:09:04.370Z,75.23
2022-10-29T07:11:30.491Z,75.19
2022-10-29T07:13:56.621Z,75.02
2022-10-29T07:16:22.714Z,74.75
2022-10-29T07:18:48.848Z,74.94
2022-10-29T07:21:14.972Z,74.70
2022-10-29T07:23:41.068Z,74.69
2022-10-29T07:26:07.474Z,74.74
2022-10-29T07:28:33.579Z,74.86
2022-10-29T07:30:59.694Z,74.90
2022-10-29T07:33:25.818Z,74.83
2022-10-29T07:35:51.918Z,74.90
2022-10-29T07:38:18.015Z,74.87
2022-10-29T07:40:44.166Z,74.96
2022-10-29T07:43:10.268Z,74.90
2022-10-29T07:45:36.376Z,74.62
2022-10-29T07:48:03.264Z,74.71
2022-10-29T07:50:29.517Z,74.56
2022-10-29T07:52:55.864Z,74.53
2022-10-29T07:55:22.144Z,74.41
2022-10-29T07:57:48.257Z,74.27
2022-10-29T08:00:14.362Z,74.05
2022-10-29T08:02:40.840Z,73.90
2022-10-29T08:05:06.991Z,73.67
2022-10-29T08:07:33.092Z,73.38
2022-10-29T08:09:59.211Z,73.13
2022-10-29T08:12:25.317Z,72.91
2022-10-29T08:14:51.443Z,72.72
2022-10-29T08:17:17.577Z,72.62
2022-10-29T08:19:43.681Z,72.34
2022-10-29T08:22:09.774Z,72.23
2022-10-29T08:24:35.911Z,71.97
2022-10-29T08:27:02.049Z,71.82
2022-10-29T08:29:28.166Z,71.63
2022-10-29T08:31:54.327Z,71.47
2022-10-29T08:34:20.428Z,71.19
2022-10-29T08:36:46.515Z,70.98
2022-10-29T08:39:12.652Z,70.79
2022-10-29T08:41:38.753Z,70.67
2022-10-29T08:44:04.859Z,70.50
2022-10-29T08:46:30.979Z,70.40
2022-10-29T08:48:57.148Z,70.25
2022-10-29T08:51:23.244Z,69.97
2022-10-29T08:53:58.708Z,69.84
2022-10-29T08:56:35.433Z,69.47
2022-10-29T08:59:01.595Z,69.39
2022-10-29T09:01:27.801Z,69.25
2022-10-29T09:03:54.001Z,69.11
2022-10-29T09:06:20.596Z,68.98
2022-10-29T09:08:46.697Z,68.78
2022-10-29T09:11:12.800Z,68.60
2022-10-29T09:13:38.944Z,68.52
2022-10-29T09:16:05.038Z,68.31
2022-10-29T09:18:31.204Z,68.17
2022-10-29T09:20:57.325Z,67.89
2022-10-29T09:23:23.440Z,67.70
2022-10-29T09:25:49.553Z,67.39
2022-10-29T09:28:15.670Z,67.17
2022-10-29T09:30:41.784Z,67.08
2022-10-29T09:33:07.893Z,66.90
2022-10-29T09:35:34.035Z,66.73
2022-10-29T09:38:00.470Z,66.50
2022-10-29T09:40:26.767Z,66.32
2022-10-29T09:42:52.911Z,65.82
2022-10-29T09:45:19.014Z,65.51
2022-10-29T09:47:45.124Z,65.25
2022-10-29T09:50:11.281Z,64.97
2022-10-29T09:52:37.389Z,64.59
2022-10-29T09:55:03.491Z,64.13
2022-10-29T09:57:29.606Z,63.81
2022-10-29T09:59:55.712Z,63.74
2022-10-29T10:02:21.832Z,63.49
2022-10-29T10:04:47.972Z,63.34
2022-10-29T10:07:14.065Z,63.22
2022-10-29T10:09:40.214Z,63.00
2022-10-29T10:12:06.329Z,62.75
2022-10-29T10:14:32.424Z,62.46
2022-10-29T10:16:58.538Z,62.25
2022-10-29T10:19:24.651Z,62.06
2022-10-29T10:21:50.757Z,62.12
2022-10-29T10:24:16.900Z,62.21
2022-10-29T10:26:43.036Z,61.72
2022-10-29T10:29:09.174Z,61.60
2022-10-29T10:31:35.283Z,61.29
2022-10-29T10:34:01.399Z,60.84
2022-10-29T10:36:27.488Z,60.60
2022-10-29T10:38:53.566Z,60.41
2022-10-29T10:41:20.085Z,60.18
2022-10-29T10:43:46.179Z,60.13
2022-10-29T10:46:12.270Z,59.71
2022-10-29T10:48:38.392Z,59.46
2022-10-29T10:51:04.505Z,59.28
2022-10-29T10:53:30.604Z,58.72
2022-10-29T10:55:56.724Z,58.61
2022-10-29T10:58:22.832Z,58.61
2022-10-29T11:00:48.963Z,58.57
2022-10-29T11:03:15.208Z,58.57
2022-10-29T11:05:41.337Z,58.37
2022-10-29T11:08:07.434Z,58.23
2022-10-29T11:10:33.561Z,57.98
2022-10-29T11:12:59.666Z,57.76
2022-10-29T11:15:25.773Z,57.47
2022-10-29T11:17:54.361Z,57.39
2022-10-29T11:20:20.773Z,57.25
2022-10-29T11:22:46.872Z,56.99
2022-10-29T11:25:12.986Z,56.53
2022-10-29T11:27:39.072Z,56.17
2022-10-29T11:30:05.184Z,55.99
2022-10-29T11:32:31.316Z,55.79
2022-10-29T11:34:57.433Z,55.54
2022-10-29T11:37:23.535Z,55.31
2022-10-29T11:39:49.667Z,54.87
2022-10-29T11:42:15.769Z,54.60
2022-10-29T11:44:41.876Z,54.24
2022-10-29T11:47:07.988Z,54.33
2022-10-29T11:49:34.096Z,53.69
2022-10-29T11:52:00.194Z,53.65
2022-10-29T11:54:26.308Z,53.59
2022-10-29T11:56:52.398Z,53.62
2022-10-29T11:59:18.701Z,53.26
2022-10-29T12:01:45.063Z,53.16
2022-10-29T12:04:11.334Z,53.06
2022-10-29T12:06:37.434Z,53.00
2022-10-29T12:09:03.587Z,52.83
2022-10-29T12:11:29.683Z,52.62
2022-10-29T12:13:55.793Z,52.33
2022-10-29T12:16:21.900Z,52.35
2022-10-29T12:18:48.005Z,52.45
2022-10-29T12:21:14.113Z,52.30
2022-10-29T12:23:40.238Z,52.27
2022-10-29T12:26:06.351Z,52.17
2022-10-29T12:28:32.454Z,51.98
2022-10-29T12:30:58.562Z,51.89
2022-10-29T12:33:24.664Z,52.03
2022-10-29T12:35:50.812Z,51.93
2022-10-29T12:38:16.997Z,51.78
2022-10-29T12:40:43.086Z,51.81
2022-10-29T12:43:09.188Z,51.63
2022-10-29T12:45:43.419Z,51.67
2022-10-29T12:48:19.344Z,51.66
2022-10-29T12:50:45.459Z,51.62
2022-10-29T12:53:11.570Z,51.80
2022-10-29T12:55:37.667Z,51.71
2022-10-29T12:58:03.787Z,51.69
2022-10-29T13:00:29.910Z,51.57
2022-10-29T13:02:56.606Z,51.67
2022-10-29T13:05:23.076Z,51.74
2022-10-29T13:07:49.170Z,51.60
2022-10-29T13:10:15.261Z,51.61
2022-10-29T13:12:41.405Z,51.33
2022-10-29T13:15:07.495Z,51.47
2022-10-29T13:17:33.584Z,51.45
2022-10-29T13:19:59.699Z,51.63
2022-10-29T13:22:25.790Z,51.63
2022-10-29T13:24:51.895Z,51.65
2022-10-29T13:27:18.039Z,51.57
2022-10-29T13:29:44.137Z,51.43
2022-10-29T13:32:10.227Z,51.51
2022-10-29T13:34:36.350Z,51.46
2022-10-29T13:37:02.451Z,51.47
2022-10-29T13:39:28.548Z,51.50
2022-10-29T13:41:54.691Z,51.44
2022-10-29T13:44:20.815Z,51.46
2022-10-29T13:46:46.930Z,51.70
2022-10-29T13:49:13.352Z,51.64
2022-10-29T13:51:39.513Z,51.67
2022-10-29T13:54:05.691Z,51.62
2022-10-29T13:56:31.854Z,51.69
2022-10-29T13:58:57.945Z,51.72
2022-10-29T14:01:24.200Z,51.70
2022-10-29T14:03:50.401Z,51.73
2022-10-29T14:06:16.504Z,51.70
2022-10-29T14:08:42.597Z,51.68
2022-10-29T14:11:08.769Z,51.58
2022-10-29T14:13:34.868Z,51.76
2022-10-29T14:16:00.981Z,51.57
2022-10-29T14:18:27.104Z,51.38
2022-10-29T14:20:53.210Z,51.43
2022-10-29T14:23:19.300Z,51.42
2022-10-29T14:25:45.433Z,51.47
2022-10-29T14:28:11.523Z,51.34
2022-10-29T14:30:37.636Z,51.27
2022-10-29T14:33:03.737Z,51.34
2022-10-29T14:35:29.826Z,51.15
2022-10-29T14:37:56.133Z,51.11
2022-10-29T14:40:22.409Z,51.17
2022-10-29T14:42:48.530Z,51.27
2022-10-29T14:45:14.638Z,51.34
2022-10-29T14:47:40.758Z,51.22
2022-10-29T14:50:06.869Z,51.27
2022-10-29T14:52:32.960Z,51.17
2022-10-29T14:54:59.089Z,51.22
2022-10-29T14:57:25.179Z,51.14
2022-10-29T14:59:51.262Z,51.21
2022-10-29T15:02:36.894Z,51.34
2022-10-29T15:05:07.523Z,51.33
2022-10-29T15:07:33.920Z,51.34
2022-10-29T15:10:00.013Z,51.43
2022-10-29T15:12:26.119Z,51.46
2022-10-29T15:14:52.248Z,51.39
2022-10-29T15:17:18.382Z,51.54
2022-10-29T15:19:44.541Z,51.60
2022-10-29T15:22:10.998Z,51.76
2022-10-29T15:24:37.100Z,51.83
2022-10-29T15:27:03.193Z,51.95
2022-10-29T15:29:33.983Z,52.09
2022-10-29T15:32:07.689Z,52.01
2022-10-29T15:34:33.812Z,51.97
2022-10-29T15:36:59.911Z,52.09
2022-10-29T15:39:25.995Z,52.07
2022-10-29T15:41:52.098Z,52.04
2022-10-29T15:44:18.200Z,51.99
2022-10-29T15:46:44.302Z,51.96
2022-10-29T15:49:10.429Z,52.20
2022-10-29T15:51:36.580Z,52.29
2022-10-29T15:54:02.710Z,52.34
2022-10-29T15:56:28.831Z,52.50
2022-10-29T15:58:54.919Z,52.59
2022-10-29T16:01:21.107Z,52.75
2022-10-29T16:03:47.343Z,52.86
2022-10-29T16:06:13.474Z,53.00
2022-10-29T16:08:39.577Z,52.95
2022-10-29T16:11:05.749Z,53.09
2022-10-29T16:13:31.883Z,53.27
2022-10-29T16:15:57.981Z,53.35
2022-10-29T16:18:24.661Z,53.56
2022-10-29T16:20:50.757Z,53.73
2022-10-29T16:23:16.897Z,53.84
2022-10-29T16:25:43.071Z,53.99
2022-10-29T16:28:09.190Z,54.16
2022-10-29T16:30:35.424Z,54.18
2022-10-29T16:33:01.635Z,54.15
2022-10-29T16:35:27.732Z,54.15
2022-10-29T16:37:53.885Z,53.91
2022-10-29T16:40:20.052Z,53.89
2022-10-29T16:42:46.153Z,53.78
2022-10-29T16:45:12.254Z,53.62
2022-10-29T16:47:38.385Z,53.71
2022-10-29T16:50:04.566Z,53.60
2022-10-29T16:52:30.660Z,53.49
2022-10-29T16:54:57.153Z,53.50
2022-10-29T16:57:23.251Z,53.35
2022-10-29T16:59:49.341Z,53.23
2022-10-29T17:02:15.465Z,53.09
2022-10-29T17:04:41.616Z,52.94
2022-10-29T17:07:07.745Z,52.76
2022-10-29T17:09:33.873Z,52.59
2022-10-29T17:11:59.972Z,52.37
2022-10-29T17:14:26.064Z,52.46
2022-10-29T17:16:52.215Z,52.27
2022-10-29T17:19:18.312Z,52.01
2022-10-29T17:21:44.419Z,51.80
2022-10-29T17:24:11.023Z,51.75
2022-10-29T17:26:37.134Z,51.38
2022-10-29T17:29:03.245Z,51.32
2022-10-29T17:31:29.352Z,51.19
2022-10-29T17:33:55.442Z,51.20
2022-10-29T17:36:21.560Z,51.19
2022-10-29T17:38:47.674Z,51.05
2022-10-29T17:41:13.771Z,51.20
2022-10-29T17:43:39.884Z,50.93
2022-10-29T17:46:05.995Z,50.96
2022-10-29T17:48:32.110Z,50.85
2022-10-29T17:50:58.202Z,50.80
2022-10-29T17:53:24.324Z,50.80
2022-10-29T17:55:50.424Z,50.71
2022-10-29T17:58:18.154Z,50.72
2022-10-29T18:00:44.385Z,50.71
2022-10-29T18:03:10.483Z,50.59
2022-10-29T18:05:36.588Z,50.65
2022-10-29T18:08:02.714Z,50.63
2022-10-29T18:10:28.807Z,50.63
2022-10-29T18:12:54.915Z,50.39
2022-10-29T18:15:21.020Z,50.38
2022-10-29T18:17:47.161Z,50.26
2022-10-29T18:20:13.321Z,50.36
2022-10-29T18:22:39.423Z,50.32
2022-10-29T18:25:05.527Z,50.32
2022-10-29T18:27:31.632Z,50.36
2022-10-29T18:29:57.865Z,50.37
2022-10-29T18:32:23.957Z,50.31
2022-10-29T18:34:50.076Z,50.30
2022-10-29T18:37:16.218Z,50.26
2022-10-29T18:39:42.356Z,50.29
2022-10-29T18:42:08.453Z,50.11
2022-10-29T18:44:34.577Z,50.05
2022-10-29T18:47:00.683Z,50.15
2022-10-29T18:49:29.706Z,50.21
2022-10-29T18:51:55.848Z,50.03
2022-10-29T18:54:22.007Z,50.17
2022-10-29T18:56:48.190Z,50.09
2022-10-29T18:59:14.624Z,49.97
2022-10-29T19:01:40.838Z,50.03
2022-10-29T19:04:07.024Z,49.97
2022-10-29T19:06:33.187Z,50.03
2022-10-29T19:08:59.292Z,50.01
2022-10-29T19:11:25.391Z,50.05
2022-10-29T19:13:51.540Z,50.02
2022-10-29T19:16:17.635Z,49.91
2022-10-29T19:18:43.733Z,49.90
2022-10-29T19:21:09.873Z,49.78
2022-10-29T19:23:35.987Z,49.69
2022-10-29T19:26:02.088Z,49.60
2022-10-29T19:28:28.279Z,49.59
2022-10-29T19:30:54.386Z,49.61
2022-10-29T19:33:20.487Z,49.58
2022-10-29T19:35:46.616Z,49.70
2022-10-29T19:38:12.716Z,49.71
2022-10-29T19:40:38.824Z,49.65
2022-10-29T19:43:04.928Z,49.57
2022-10-29T19:45:31.014Z,49.59
2022-10-29T19:47:57.333Z,49.51
2022-10-29T19:52:54.925Z,49.30
2022-10-29T19:55:21.320Z,49.39
2022-10-29T19:57:47.428Z,49.31
2022-10-29T20:00:16.763Z,49.22
2022-10-29T20:02:43.941Z,49.19
2022-10-29T20:05:10.059Z,49.17
2022-10-29T20:07:36.162Z,49.15
2022-10-29T20:10:02.265Z,49.09
2022-10-29T20:12:28.381Z,49.17
2022-10-29T20:14:54.496Z,49.11
2022-10-29T20:17:20.593Z,49.09
2022-10-29T20:19:46.705Z,49.02
2022-10-29T20:22:12.797Z,48.92
2022-10-29T20:24:38.924Z,49.07
2022-10-29T20:27:05.041Z,49.07
2022-10-29T20:29:31.149Z,48.86
2022-10-29T20:31:57.242Z,48.79
2022-10-29T20:34:23.396Z,48.79
2022-10-29T20:36:49.577Z,48.74
2022-10-29T20:39:15.804Z,48.66
2022-10-29T20:41:41.910Z,48.63
2022-10-29T20:44:08.003Z,48.64
2022-10-29T20:46:36.117Z,48.63
2022-10-29T20:49:05.401Z,48.50
2022-10-29T20:51:31.496Z,48.53
2022-10-29T20:53:57.588Z,48.52
2022-10-29T20:56:23.698Z,48.63
2022-10-29T20:58:49.789Z,48.62
2022-10-29T21:01:16.008Z,48.57
2022-10-29T21:03:42.222Z,48.58
2022-10-29T21:06:13.862Z,48.63
2022-10-29T21:08:42.903Z,48.64
2022-10-29T21:11:09.085Z,48.61
2022-10-29T21:13:35.183Z,48.54
2022-10-29T21:16:01.282Z,48.49
2022-10-29T21:18:27.482Z,48.50
2022-10-29T21:20:53.579Z,48.36
2022-10-29T21:23:23.707Z,48.56
2022-10-29T21:25:50.227Z,48.35
2022-10-29T21:28:16.357Z,48.32
2022-10-29T21:30:42.444Z,48.35
2022-10-29T21:33:08.548Z,48.26
2022-10-29T21:35:34.645Z,48.32
2022-10-29T21:38:00.840Z,48.28
2022-10-29T21:40:26.970Z,48.26
2022-10-29T21:42:53.066Z,48.39
2022-10-29T21:45:19.147Z,48.33
2022-10-29T21:47:45.275Z,48.80
2022-10-29T21:50:11.385Z,48.91
2022-10-29T21:52:37.471Z,49.06
2022-10-29T21:55:03.574Z,49.15
2022-10-29T21:57:29.685Z,49.25
2022-10-29T21:59:55.776Z,49.26
2022-10-29T22:02:21.957Z,49.23
2022-10-29T22:04:48.071Z,49.23
2022-10-29T22:07:14.168Z,49.49
2022-10-29T22:09:40.290Z,49.39
2022-10-29T22:12:06.380Z,49.53
2022-10-29T22:14:32.474Z,49.68
2022-10-29T22:16:58.629Z,49.65
2022-10-29T22:19:24.722Z,49.71
2022-10-29T22:21:50.834Z,49.83
2022-10-29T22:24:16.936Z,49.95
2022-10-29T22:26:43.032Z,49.94
2022-10-29T22:29:09.131Z,49.94
2022-10-29T22:31:35.260Z,49.85
2022-10-29T22:34:01.355Z,49.85
2022-10-29T22:36:27.445Z,49.82
2022-10-29T22:38:53.839Z,49.84
2022-10-29T22:41:19.924Z,49.79
2022-10-29T22:43:46.059Z,49.74
2022-10-29T22:46:12.170Z,49.63
2022-10-29T22:48:38.253Z,49.55
2022-10-29T22:51:04.343Z,49.43
2022-10-29T22:53:30.448Z,49.47
2022-10-29T22:55:56.541Z,49.44
2022-10-29T22:58:22.649Z,49.37
2022-10-29T23:00:48.854Z,49.34
2022-10-29T23:03:14.968Z,49.36
2022-10-29T23:05:41.058Z,49.26
2022-10-29T23:08:07.173Z,49.20
2022-10-29T23:10:33.268Z,49.26
2022-10-29T23:12:59.409Z,49.18
2022-10-29T23:15:25.535Z,49.28
2022-10-29T23:17:51.672Z,49.25
2022-10-29T23:20:17.769Z,49.17
2022-10-29T23:22:43.910Z,49.12
2022-10-29T23:25:10.000Z,49.25
2022-10-29T23:27:36.119Z,48.92
2022-10-29T23:30:02.237Z,48.94
2022-10-29T23:32:28.332Z,48.85
2022-10-29T23:34:54.449Z,48.83
2022-10-29T23:37:20.723Z,48.83
2022-10-29T23:39:46.815Z,48.88
2022-10-29T23:42:12.920Z,48.84
2022-10-29T23:44:39.409Z,48.80
2022-10-29T23:47:05.500Z,48.64
2022-10-29T23:49:31.596Z,48.57
2022-10-29T23:51:57.704Z,48.53
2022-10-29T23:54:23.839Z,48.60
2022-10-29T23:56:49.956Z,48.47
2022-10-29T23:59:16.084Z,48.51
